Terminal Aerodrome Forecast
Issued by NWS

Home | Current Version | Previous Version | Graphics & Text | Print | Product List | Glossary On
Versions: 1 2 3 4 5 6 7 8 9 10 11 12 13 14 15 16 17 18
646
FTUS43 KFGF 191738
TAFBJI
TAF
KBJI 191738Z 1918/2018 02012KT P6SM SCT050 BKN120
     FM200100 02010KT 3SM -SN BR BKN020 OVC040
     FM200500 01009KT 1SM -SN BR BKN015 OVC020
      TEMPO 2006/2010 1/2SM SN OVC008
     FM201300 36010KT 1 1/2SM -SN OVC012=

USA.gov is the U.S. government's official web portal to all federal, state and local government web resources and services.